createdAt,value
2023-05-13T00:00:48.370Z,101726.31
2023-05-13T00:05:00.054Z,101725.03
2023-05-13T00:09:11.748Z,101733.84
2023-05-13T00:13:23.444Z,101732.31
2023-05-13T00:17:35.224Z,101730.13
2023-05-13T00:21:50.059Z,101728.81
2023-05-13T00:26:01.841Z,101734.91
2023-05-13T00:30:13.570Z,101726.53
2023-05-13T00:34:25.140Z,101711.66
2023-05-13T00:38:37.203Z,101730.22
2023-05-13T00:42:49.536Z,101722.56
2023-05-13T00:47:01.193Z,101721.25
2023-05-13T00:51:12.922Z,101726.66
2023-05-13T00:55:24.719Z,101725.06
2023-05-13T00:59:36.368Z,101723.75
2023-05-13T01:04:36.661Z,101714.88
2023-05-13T01:09:03.481Z,101724.56
2023-05-13T01:13:23.746Z,101740.56
2023-05-13T01:18:13.734Z,101731.84
2023-05-13T01:22:25.970Z,101727.13
2023-05-13T01:26:37.661Z,101717.22
2023-05-13T01:30:49.647Z,101716.25
2023-05-13T01:35:02.844Z,101712.66
2023-05-13T01:39:17.849Z,101708.34
2023-05-13T01:43:30.375Z,101719.38
2023-05-13T01:47:42.218Z,101720.50
2023-05-13T01:51:54.362Z,101704.63
2023-05-13T01:56:10.467Z,101718.13
2023-05-13T02:00:22.861Z,101719.25
2023-05-13T02:04:34.749Z,101728.59
2023-05-13T02:08:47.149Z,101705.09
2023-05-13T02:12:58.860Z,101713.59
2023-05-13T02:17:10.577Z,101704.56
2023-05-13T02:21:22.285Z,101713.34
2023-05-13T02:25:34.348Z,101718.28
2023-05-13T02:29:46.158Z,101726.44
2023-05-13T02:33:57.925Z,101727.16
2023-05-13T02:38:10.742Z,101733.75
2023-05-13T02:42:22.659Z,101725.16
2023-05-13T02:46:34.565Z,101716.09
2023-05-13T02:50:46.403Z,101709.47
2023-05-13T02:54:58.217Z,101711.19
2023-05-13T02:59:10.082Z,101712.28
2023-05-13T03:03:22.079Z,101700.69
2023-05-13T03:07:34.371Z,101707.97
2023-05-13T03:11:46.146Z,101705.91
2023-05-13T03:15:57.933Z,101699.97
2023-05-13T03:20:10.534Z,101716.56
2023-05-13T03:24:22.391Z,101719.50
2023-05-13T03:28:34.446Z,101730.69
2023-05-13T03:32:46.867Z,101714.34
2023-05-13T03:36:59.133Z,101722.25
2023-05-13T03:41:12.776Z,101710.47
2023-05-13T03:45:24.656Z,101735.13
2023-05-13T03:49:39.951Z,101709.66
2023-05-13T03:53:52.009Z,101715.25
2023-05-13T03:58:17.100Z,101721.47
2023-05-13T04:02:29.514Z,101722.09
2023-05-13T04:06:41.266Z,101731.63
2023-05-13T04:10:54.514Z,101720.44
2023-05-13T04:15:06.563Z,101725.00
2023-05-13T04:19:18.128Z,101728.94
2023-05-13T04:23:29.779Z,101753.38
2023-05-13T04:27:41.850Z,101729.78
2023-05-13T04:32:01.839Z,101744.03
2023-05-13T04:36:15.091Z,101744.44
2023-05-13T04:40:27.876Z,101756.63
2023-05-13T04:44:43.382Z,101751.34
2023-05-13T04:48:55.335Z,101741.22
2023-05-13T04:53:07.293Z,101754.75
2023-05-13T04:57:19.021Z,101755.44
2023-05-13T05:01:31.299Z,101753.66
2023-05-13T05:05:43.176Z,101754.38
2023-05-13T05:09:56.388Z,101768.81
2023-05-13T05:14:09.292Z,101765.91
2023-05-13T05:18:21.562Z,101773.53
2023-05-13T05:22:36.213Z,101739.63
2023-05-13T05:26:48.120Z,101777.09
2023-05-13T05:31:01.966Z,101767.06
2023-05-13T05:35:17.033Z,101770.25
2023-05-13T05:39:28.835Z,101791.81
2023-05-13T05:43:40.576Z,101799.63
2023-05-13T05:47:55.185Z,101794.56
2023-05-13T05:52:07.218Z,101794.78
2023-05-13T05:56:19.799Z,101797.13
2023-05-13T06:00:32.214Z,101792.19
2023-05-13T06:04:44.258Z,101791.88
2023-05-13T06:08:56.102Z,101797.75
2023-05-13T06:13:07.828Z,101803.59
2023-05-13T06:17:19.557Z,101817.22
2023-05-13T06:21:32.103Z,101806.75
2023-05-13T06:25:43.746Z,101820.19
2023-05-13T06:29:55.579Z,101817.16
2023-05-13T06:34:07.376Z,101804.25
2023-05-13T06:38:19.120Z,101812.84
2023-05-13T06:42:32.768Z,101815.19
2023-05-13T06:46:46.558Z,101807.09
2023-05-13T06:50:58.249Z,101822.78
2023-05-13T06:55:10.590Z,101815.09
2023-05-13T06:59:22.890Z,101814.91
2023-05-13T07:03:34.581Z,101819.00
2023-05-13T07:07:46.315Z,101820.31
2023-05-13T07:11:57.895Z,101818.94
2023-05-13T07:16:09.522Z,101823.97
2023-05-13T07:20:22.786Z,101826.28
2023-05-13T07:24:34.631Z,101816.53
2023-05-13T07:28:46.272Z,101825.44
2023-05-13T07:32:57.962Z,101825.31
2023-05-13T07:37:09.614Z,101827.41
2023-05-13T07:41:21.593Z,101834.34
2023-05-13T07:45:33.255Z,101829.63
2023-05-13T07:49:44.858Z,101826.16
2023-05-13T07:53:57.066Z,101824.75
2023-05-13T07:58:08.641Z,101828.38
2023-05-13T08:02:20.376Z,101827.16
2023-05-13T08:06:32.795Z,101814.13
2023-05-13T08:10:44.720Z,101819.97
2023-05-13T08:14:56.371Z,101824.38
2023-05-13T08:19:08.105Z,101825.13
2023-05-13T08:23:19.970Z,101825.19
2023-05-13T08:27:31.650Z,101820.56
2023-05-13T08:31:43.355Z,101815.91
2023-05-13T08:35:54.900Z,101815.69
2023-05-13T08:40:07.326Z,101813.66
2023-05-13T08:44:22.711Z,101809.34
2023-05-13T08:48:34.947Z,101818.06
2023-05-13T08:52:55.762Z,101816.19
2023-05-13T08:57:07.495Z,101808.09
2023-05-13T09:01:19.313Z,101806.69
2023-05-13T09:05:31.999Z,101800.38
2023-05-13T09:09:44.652Z,101800.47
2023-05-13T09:13:58.287Z,101805.59
2023-05-13T09:18:10.066Z,101813.16
2023-05-13T09:22:22.804Z,101805.00
2023-05-13T09:26:34.512Z,101794.88
2023-05-13T09:30:54.760Z,101815.34
2023-05-13T09:35:19.197Z,101802.06
2023-05-13T09:39:39.373Z,101799.09
2023-05-13T09:43:51.120Z,101790.00
2023-05-13T09:48:04.378Z,101794.44
2023-05-13T09:52:17.133Z,101793.69
2023-05-13T09:56:30.925Z,101794.53
2023-05-13T10:00:43.954Z,101794.78
2023-05-13T10:04:56.913Z,101785.44
2023-05-13T10:09:10.041Z,101790.16
2023-05-13T10:13:24.224Z,101771.56
2023-05-13T10:17:36.566Z,101770.91
2023-05-13T10:21:50.458Z,101767.50
2023-05-13T10:26:02.922Z,101764.78
2023-05-13T10:30:16.202Z,101781.31
2023-05-13T10:34:59.100Z,101770.25
2023-05-13T10:39:27.430Z,101764.31
2023-05-13T10:43:39.311Z,101772.97
2023-05-13T10:47:51.706Z,101759.75
2023-05-13T10:52:14.349Z,101756.25
2023-05-13T10:56:28.324Z,101751.78
2023-05-13T11:00:42.704Z,101758.56
2023-05-13T11:04:58.745Z,101765.50
2023-05-13T11:09:20.359Z,101765.50
2023-05-13T11:13:38.239Z,101762.56
2023-05-13T11:17:53.400Z,101753.66
2023-05-13T11:22:05.102Z,101747.47
2023-05-13T11:26:17.167Z,101744.63
2023-05-13T11:30:29.002Z,101754.88
2023-05-13T11:34:50.781Z,101740.56
2023-05-13T11:39:07.139Z,101743.06
2023-05-13T11:43:21.735Z,101754.78
2023-05-13T11:47:33.340Z,101742.00
2023-05-13T11:51:44.930Z,101736.75
2023-05-13T11:55:57.358Z,101733.03
2023-05-13T12:00:10.388Z,101727.44
2023-05-13T12:04:28.299Z,101721.22
2023-05-13T12:08:44.548Z,101731.66
2023-05-13T12:12:56.887Z,101722.75
2023-05-13T12:17:08.512Z,101718.22
2023-05-13T12:21:21.284Z,101714.31
2023-05-13T12:25:47.580Z,101707.47
2023-05-13T12:29:59.109Z,101704.81
2023-05-13T12:34:10.728Z,101708.75
2023-05-13T12:38:24.571Z,101717.06
2023-05-13T12:42:36.404Z,101723.47
2023-05-13T12:46:55.670Z,101722.41
2023-05-13T12:51:07.683Z,101711.13
2023-05-13T12:55:19.611Z,101710.94
2023-05-13T12:59:31.390Z,101721.06
2023-05-13T13:03:43.500Z,101705.25
2023-05-13T13:07:55.272Z,101701.59
2023-05-13T13:12:07.205Z,101704.22
2023-05-13T13:16:19.051Z,101701.25
2023-05-13T13:20:30.653Z,101691.28
2023-05-13T13:24:42.288Z,101690.84
2023-05-13T13:28:53.962Z,101690.41
2023-05-13T13:33:05.634Z,101669.88
2023-05-13T13:37:17.260Z,101685.00
2023-05-13T13:41:28.803Z,101684.19
2023-05-13T13:45:40.537Z,101675.69
2023-05-13T13:49:52.277Z,101665.22
2023-05-13T13:54:05.228Z,101678.78
2023-05-13T13:58:16.766Z,101679.53
2023-05-13T14:02:28.535Z,101677.97
2023-05-13T14:06:40.687Z,101683.16
2023-05-13T14:10:52.454Z,101672.34
2023-05-13T14:15:04.453Z,101664.34
2023-05-13T14:19:18.056Z,101674.16
2023-05-13T14:23:29.859Z,101669.25
2023-05-13T14:27:41.468Z,101657.06
2023-05-13T14:31:53.298Z,101650.59
2023-05-13T14:36:06.230Z,101665.91
2023-05-13T14:40:17.772Z,101657.78
2023-05-13T14:44:29.364Z,101640.09
2023-05-13T14:48:41.250Z,101643.94
2023-05-13T14:52:52.915Z,101646.38
2023-05-13T14:57:05.977Z,101651.25
2023-05-13T15:01:17.531Z,101653.13
2023-05-13T15:05:29.140Z,101635.56
2023-05-13T15:09:40.742Z,101639.75
2023-05-13T15:13:54.477Z,101622.75
2023-05-13T15:18:06.320Z,101626.41
2023-05-13T15:22:18.204Z,101629.59
2023-05-13T15:26:29.798Z,101629.59
2023-05-13T15:30:42.642Z,101631.41
2023-05-13T15:34:54.399Z,101626.19
2023-05-13T15:39:06.860Z,101622.69
2023-05-13T15:43:18.692Z,101627.34
2023-05-13T15:47:30.451Z,101590.22
2023-05-13T15:51:42.607Z,101619.72
2023-05-13T15:55:55.467Z,101602.47
2023-05-13T16:00:07.707Z,101611.34
2023-05-13T16:04:19.342Z,101609.69
2023-05-13T16:08:31.119Z,101596.78
2023-05-13T16:12:43.031Z,101597.16
2023-05-13T16:16:54.947Z,101569.91
2023-05-13T16:21:09.365Z,101573.91
2023-05-13T16:25:21.669Z,101598.28
2023-05-13T16:29:34.743Z,101597.84
2023-05-13T16:33:46.417Z,101597.50
2023-05-13T16:37:58.059Z,101567.44
2023-05-13T16:42:09.965Z,101574.97
2023-05-13T16:46:21.585Z,101577.94
2023-05-13T16:50:33.170Z,101586.00
2023-05-13T16:54:44.801Z,101585.41
2023-05-13T16:58:56.361Z,101561.97
2023-05-13T17:03:08.018Z,101587.22
2023-05-13T17:07:19.697Z,101589.50
2023-05-13T17:16:35.329Z,101596.16
2023-05-13T17:20:46.996Z,101585.81
2023-05-13T17:24:58.689Z,101589.25
2023-05-13T17:29:10.282Z,101584.41
2023-05-13T17:33:23.106Z,101591.53
2023-05-13T17:38:24.912Z,101595.16
2023-05-13T17:42:36.914Z,101585.03
2023-05-13T17:46:48.478Z,101586.50
2023-05-13T17:51:00.175Z,101598.31
2023-05-13T17:55:11.827Z,101605.19
2023-05-13T17:59:23.542Z,101607.75
2023-05-13T18:03:35.282Z,101599.84
2023-05-13T18:07:47.381Z,101593.09
2023-05-13T18:11:59.147Z,101596.41
2023-05-13T18:16:11.635Z,101597.31
2023-05-13T18:20:23.612Z,101591.91
2023-05-13T18:24:36.003Z,101612.13
2023-05-13T18:28:47.747Z,101604.00
2023-05-13T18:32:59.675Z,101608.16
2023-05-13T18:37:11.448Z,101614.47
2023-05-13T18:41:23.161Z,101615.91
2023-05-13T18:45:34.841Z,101623.31
2023-05-13T18:49:46.574Z,101617.34
2023-05-13T18:53:58.839Z,101623.66
2023-05-13T18:58:10.658Z,101615.47
2023-05-13T19:02:22.581Z,101622.06
2023-05-13T19:06:38.079Z,101625.63
2023-05-13T19:10:49.832Z,101628.94
2023-05-13T19:15:01.608Z,101640.41
2023-05-13T19:19:13.298Z,101635.75
2023-05-13T19:23:25.072Z,101647.19
2023-05-13T19:27:37.506Z,101650.19
2023-05-13T19:31:50.446Z,101655.63
2023-05-13T19:36:04.205Z,101649.59
2023-05-13T19:40:16.359Z,101663.53
2023-05-13T19:44:28.686Z,101664.06
2023-05-13T19:48:43.522Z,101661.06
2023-05-13T19:52:55.558Z,101668.41
2023-05-13T19:57:07.724Z,101673.03
2023-05-13T20:01:19.619Z,101671.09
2023-05-13T20:05:31.443Z,101680.63
2023-05-13T20:09:43.403Z,101675.19
2023-05-13T20:13:55.712Z,101672.38
2023-05-13T20:18:07.408Z,101668.56
2023-05-13T20:22:44.341Z,101679.75
2023-05-13T20:26:56.047Z,101673.16
2023-05-13T20:31:07.713Z,101677.19
2023-05-13T20:35:19.500Z,101659.97
2023-05-13T20:39:31.506Z,101674.94
2023-05-13T20:43:43.106Z,101672.66
2023-05-13T20:47:59.252Z,101675.63
2023-05-13T20:52:11.446Z,101669.88
2023-05-13T20:56:23.135Z,101680.16
2023-05-13T21:00:34.796Z,101671.34
2023-05-13T21:04:46.516Z,101680.81
2023-05-13T21:08:58.290Z,101660.69
2023-05-13T21:13:10.548Z,101670.66
2023-05-13T21:17:23.841Z,101671.41
2023-05-13T21:21:35.437Z,101677.19
2023-05-13T21:25:47.160Z,101676.22
2023-05-13T21:29:58.847Z,101675.53
2023-05-13T21:34:10.577Z,101671.81
2023-05-13T21:38:22.431Z,101676.88
2023-05-13T21:42:34.066Z,101672.44
2023-05-13T21:46:45.820Z,101667.22
2023-05-13T21:50:57.878Z,101672.09
2023-05-13T21:55:09.913Z,101679.09
2023-05-13T21:59:21.595Z,101676.88
2023-05-13T22:03:33.237Z,101681.50
2023-05-13T22:07:45.003Z,101674.28
2023-05-13T22:11:56.764Z,101669.91
2023-05-13T22:16:08.725Z,101678.81
2023-05-13T22:20:20.949Z,101666.16
2023-05-13T22:24:32.680Z,101665.34
2023-05-13T22:28:46.408Z,101660.31
2023-05-13T22:32:58.253Z,101664.00
2023-05-13T22:37:10.083Z,101655.19
2023-05-13T22:41:23.809Z,101656.09
2023-05-13T22:45:36.947Z,101651.88
2023-05-13T22:49:48.648Z,101657.88
2023-05-13T22:54:00.249Z,101643.28
2023-05-13T22:58:11.842Z,101634.41
2023-05-13T23:02:24.236Z,101644.59
2023-05-13T23:06:36.527Z,101637.91
2023-05-13T23:10:48.098Z,101649.56
2023-05-13T23:14:59.729Z,101644.28
2023-05-13T23:19:11.448Z,101642.31
2023-05-13T23:23:23.403Z,101639.38
2023-05-13T23:27:35.353Z,101641.88
2023-05-13T23:31:46.958Z,101642.34
2023-05-13T23:35:58.535Z,101646.59
2023-05-13T23:40:10.388Z,101641.34
2023-05-13T23:44:21.942Z,101642.41
2023-05-13T23:48:33.585Z,101626.63
2023-05-13T23:52:45.119Z,101638.19
2023-05-13T23:56:56.655Z,101620.53
